createdAt,value
2023-04-28T00:01:30.390Z,15.85
2023-04-28T00:03:58.764Z,15.63
2023-04-28T00:06:26.025Z,11.27
2023-04-28T00:08:52.881Z,13.50
2023-04-28T00:11:19.823Z,13.30
2023-04-28T00:13:46.558Z,15.02
2023-04-28T00:16:13.330Z,19.38
2023-04-28T00:18:40.201Z,21.50
2023-04-28T00:21:07.395Z,15.38
2023-04-28T00:23:34.206Z,16.67
2023-04-28T00:26:01.185Z,15.40
2023-04-28T00:28:34.228Z,12.52
2023-04-28T00:31:01.672Z,13.68
2023-04-28T00:33:28.460Z,19.88
2023-04-28T00:36:01.784Z,15.23
2023-04-28T00:38:28.882Z,12.95
2023-04-28T00:40:55.709Z,16.13
2023-04-28T00:43:22.529Z,12.32
2023-04-28T00:45:50.630Z,13.98
2023-04-28T00:48:17.835Z,11.93
2023-04-28T00:50:45.773Z,13.93
2023-04-28T00:53:13.391Z,19.88
2023-04-28T00:55:40.614Z,16.30
2023-04-28T00:58:08.476Z,13.85
2023-04-28T01:00:35.609Z,11.32
2023-04-28T01:03:02.669Z,15.93
2023-04-28T01:05:30.502Z,14.80
2023-04-28T01:07:57.291Z,13.77
2023-04-28T01:10:24.063Z,16.65
2023-04-28T01:12:50.940Z,21.73
2023-04-28T01:15:20.244Z,14.15
2023-04-28T01:17:47.826Z,11.77
2023-04-28T01:20:15.532Z,22.05
2023-04-28T01:22:42.458Z,15.43
2023-04-28T01:25:09.443Z,10.93
2023-04-28T01:27:36.216Z,16.95
2023-04-28T01:30:03.128Z,18.85
2023-04-28T01:32:29.915Z,10.55
2023-04-28T01:34:56.722Z,18.02
2023-04-28T01:37:23.987Z,12.90
2023-04-28T01:39:50.955Z,11.60
2023-04-28T01:42:17.686Z,15.00
2023-04-28T01:44:44.442Z,12.57
2023-04-28T01:47:11.267Z,8.63
2023-04-28T01:49:38.001Z,12.48
2023-04-28T01:52:04.936Z,13.57
2023-04-28T01:54:31.742Z,11.30
2023-04-28T01:56:58.474Z,14.15
2023-04-28T01:59:25.408Z,14.80
2023-04-28T02:01:52.281Z,10.82
2023-04-28T02:04:19.197Z,14.10
2023-04-28T02:06:46.334Z,11.35
2023-04-28T02:09:13.110Z,17.13
2023-04-28T02:11:40.133Z,14.20
2023-04-28T02:14:07.354Z,14.57
2023-04-28T02:16:34.306Z,13.95
2023-04-28T02:19:01.373Z,10.43
2023-04-28T02:21:28.162Z,12.73
2023-04-28T02:23:55.003Z,9.82
2023-04-28T02:26:21.791Z,11.45
2023-04-28T02:28:49.230Z,9.80
2023-04-28T02:31:16.402Z,16.30
2023-04-28T02:33:43.508Z,16.45
2023-04-28T02:36:11.122Z,11.15
2023-04-28T02:38:38.036Z,17.50
2023-04-28T02:41:07.507Z,14.77
2023-04-28T02:43:34.365Z,12.93
2023-04-28T02:46:02.609Z,14.48
2023-04-28T02:48:29.446Z,18.08
2023-04-28T02:50:56.255Z,13.02
2023-04-28T02:53:23.145Z,16.30
2023-04-28T02:55:50.340Z,10.95
2023-04-28T02:58:18.228Z,13.13
2023-04-28T03:00:45.507Z,12.35
2023-04-28T03:03:12.991Z,14.50
2023-04-28T03:05:40.075Z,13.55
2023-04-28T03:08:06.965Z,13.25
2023-04-28T03:10:33.745Z,16.67
2023-04-28T03:13:00.562Z,15.52
2023-04-28T03:15:27.706Z,14.55
2023-04-28T03:17:54.576Z,15.65
2023-04-28T03:20:21.560Z,9.63
2023-04-28T03:22:48.336Z,11.60
2023-04-28T03:25:15.706Z,16.35
2023-04-28T03:27:42.516Z,14.55
2023-04-28T03:30:10.484Z,15.00
2023-04-28T03:32:37.407Z,10.50
2023-04-28T03:35:04.695Z,11.25
2023-04-28T03:37:31.497Z,14.88
2023-04-28T03:39:58.243Z,13.70
2023-04-28T03:42:25.039Z,11.52
2023-04-28T03:44:51.844Z,10.55
2023-04-28T03:47:18.654Z,13.07
2023-04-28T03:49:45.621Z,15.75
2023-04-28T03:52:12.393Z,11.88
2023-04-28T03:54:39.208Z,17.73
2023-04-28T03:57:06.005Z,13.88
2023-04-28T03:59:33.156Z,15.88
2023-04-28T04:02:00.064Z,14.93
2023-04-28T04:04:27.322Z,13.93
2023-04-28T04:06:54.547Z,13.25
2023-04-28T04:09:21.396Z,10.27
2023-04-28T04:11:48.152Z,11.95
2023-04-28T04:14:15.173Z,11.20
2023-04-28T04:16:42.454Z,9.70
2023-04-28T04:19:09.275Z,12.43
2023-04-28T04:21:36.272Z,15.25
2023-04-28T04:24:03.065Z,18.77
2023-04-28T04:26:29.823Z,14.35
2023-04-28T04:28:56.719Z,14.90
2023-04-28T04:31:23.638Z,14.18
2023-04-28T04:33:50.469Z,12.75
2023-04-28T04:36:17.372Z,18.45
2023-04-28T04:38:44.171Z,13.77
2023-04-28T04:41:10.920Z,15.52
2023-04-28T04:43:37.638Z,15.77
2023-04-28T04:46:04.842Z,12.00
2023-04-28T04:48:31.717Z,11.82
2023-04-28T04:50:58.591Z,10.98
2023-04-28T04:53:25.490Z,14.88
2023-04-28T04:55:52.292Z,19.85
2023-04-28T04:58:19.153Z,19.08
2023-04-28T05:00:46.065Z,12.63
2023-04-28T05:03:13.083Z,15.00
2023-04-28T05:05:40.540Z,19.30
2023-04-28T05:08:07.330Z,20.67
2023-04-28T05:10:34.187Z,17.15
2023-04-28T05:13:01.027Z,15.93
2023-04-28T05:15:28.238Z,11.60
2023-04-28T05:17:55.119Z,13.02
2023-04-28T05:20:21.985Z,16.77
2023-04-28T05:22:48.741Z,14.40
2023-04-28T05:25:15.960Z,16.65
2023-04-28T05:27:42.841Z,20.15
2023-04-28T05:30:10.843Z,18.40
2023-04-28T05:32:41.456Z,15.52
2023-04-28T05:35:08.694Z,16.88
2023-04-28T05:37:35.781Z,14.15
2023-04-28T05:40:02.523Z,14.75
2023-04-28T05:42:29.296Z,20.13
2023-04-28T05:44:56.102Z,18.08
2023-04-28T05:47:22.923Z,16.23
2023-04-28T05:49:49.717Z,13.57
2023-04-28T05:52:16.499Z,16.20
2023-04-28T05:54:43.328Z,20.40
2023-04-28T05:57:10.117Z,17.70
2023-04-28T05:59:36.882Z,16.80
2023-04-28T06:02:03.724Z,22.70
2023-04-28T06:04:30.803Z,14.35
2023-04-28T06:06:58.008Z,14.52
2023-04-28T06:09:25.045Z,17.88
2023-04-28T06:11:51.791Z,16.55
2023-04-28T06:14:18.685Z,22.13
2023-04-28T06:16:45.841Z,14.20
2023-04-28T06:19:18.817Z,14.45
2023-04-28T06:21:46.484Z,15.18
2023-04-28T06:24:13.299Z,10.48
2023-04-28T06:26:40.311Z,16.75
2023-04-28T06:29:07.116Z,13.77
2023-04-28T06:31:33.908Z,13.35
2023-04-28T06:34:00.680Z,14.43
2023-04-28T06:36:28.244Z,10.57
2023-04-28T06:38:55.807Z,12.93
2023-04-28T06:41:22.739Z,13.55
2023-04-28T06:43:50.974Z,25.70
2023-04-28T06:46:17.854Z,13.75
2023-04-28T06:48:44.665Z,13.48
2023-04-28T06:51:11.430Z,14.45
2023-04-28T06:53:38.409Z,10.10
2023-04-28T06:56:05.725Z,10.13
2023-04-28T06:58:32.823Z,11.38
2023-04-28T07:00:59.634Z,11.80
2023-04-28T07:03:27.887Z,8.90
2023-04-28T07:05:54.961Z,16.27
2023-04-28T07:08:21.891Z,9.82
2023-04-28T07:10:48.717Z,5.55
2023-04-28T07:13:15.626Z,12.02
2023-04-28T07:15:42.441Z,9.55
2023-04-28T07:18:10.450Z,11.23
2023-04-28T07:20:37.221Z,13.77
2023-04-28T07:23:03.967Z,5.55
2023-04-28T07:25:31.669Z,7.30
2023-04-28T07:27:58.561Z,6.53
2023-04-28T07:30:27.871Z,8.30
2023-04-28T07:32:55.556Z,4.28
2023-04-28T07:35:22.775Z,7.45
2023-04-28T07:37:49.835Z,2.90
2023-04-28T07:40:16.967Z,3.30
2023-04-28T07:42:43.714Z,5.75
2023-04-28T07:45:11.437Z,2.45
2023-04-28T07:47:39.373Z,5.65
2023-04-28T07:50:07.081Z,1.65
2023-04-28T07:52:34.886Z,2.10
2023-04-28T07:55:03.415Z,2.95
2023-04-28T07:57:30.772Z,1.52
2023-04-28T07:59:57.613Z,5.38
2023-04-28T08:02:24.469Z,1.35
2023-04-28T08:04:51.513Z,1.73
2023-04-28T08:07:18.459Z,5.07
2023-04-28T08:09:47.690Z,3.28
2023-04-28T08:12:15.085Z,2.22
2023-04-28T08:14:41.929Z,3.42
2023-04-28T08:17:09.428Z,6.25
2023-04-28T08:19:36.302Z,4.30
2023-04-28T08:22:06.157Z,1.97
2023-04-28T08:24:36.827Z,2.70
2023-04-28T08:27:04.115Z,3.40
2023-04-28T08:29:32.132Z,4.73
2023-04-28T08:31:59.674Z,5.93
2023-04-28T08:34:26.469Z,2.67
2023-04-28T08:36:53.572Z,3.35
2023-04-28T08:39:23.862Z,2.38
2023-04-28T08:41:50.868Z,3.03
2023-04-28T08:44:18.481Z,3.40
2023-04-28T08:46:47.348Z,1.92
2023-04-28T08:49:19.059Z,2.53
2023-04-28T08:51:50.546Z,2.53
2023-04-28T08:54:26.241Z,3.50
2023-04-28T08:56:55.589Z,3.63
2023-04-28T08:59:22.656Z,5.13
2023-04-28T09:01:50.660Z,2.53
2023-04-28T09:04:19.325Z,5.68
2023-04-28T09:06:46.824Z,6.65
2023-04-28T09:09:21.892Z,10.47
2023-04-28T09:11:59.641Z,2.60
2023-04-28T09:14:28.383Z,7.33
2023-04-28T09:16:56.105Z,5.03
2023-04-28T09:19:23.260Z,3.60
2023-04-28T09:21:53.821Z,5.53
2023-04-28T09:24:39.872Z,4.63
2023-04-28T09:27:10.792Z,5.97
2023-04-28T09:29:39.129Z,2.70
2023-04-28T09:32:20.272Z,4.40
2023-04-28T09:34:52.025Z,3.70
2023-04-28T09:37:27.172Z,3.73
2023-04-28T09:39:55.306Z,4.23
2023-04-28T09:42:35.302Z,2.40
2023-04-28T09:45:04.587Z,4.90
2023-04-28T09:47:33.720Z,5.47
2023-04-28T09:50:02.478Z,2.40
2023-04-28T09:52:29.310Z,4.77
2023-04-28T09:54:57.023Z,5.30
2023-04-28T09:57:24.556Z,3.97
2023-04-28T09:59:52.602Z,8.33
2023-04-28T10:02:42.892Z,2.90
2023-04-28T10:05:11.349Z,5.63
2023-04-28T10:07:39.386Z,8.33
2023-04-28T10:10:08.187Z,4.83
2023-04-28T10:12:38.141Z,4.73
2023-04-28T10:15:06.412Z,5.67
2023-04-28T10:17:34.013Z,3.07
2023-04-28T10:20:00.831Z,7.10
2023-04-28T10:22:58.484Z,3.27
2023-04-28T10:25:32.142Z,1.63
2023-04-28T10:28:00.366Z,4.30
2023-04-28T10:30:30.125Z,1.70
2023-04-28T10:33:06.936Z,8.63
2023-04-28T10:35:36.397Z,2.50
2023-04-28T10:38:09.204Z,6.90
2023-04-28T10:40:39.648Z,3.07
2023-04-28T10:43:08.861Z,14.43
2023-04-28T10:45:58.062Z,4.70
2023-04-28T10:48:34.437Z,5.03
2023-04-28T10:51:04.682Z,1.97
2023-04-28T10:53:47.444Z,5.40
2023-04-28T10:56:19.821Z,5.17
2023-04-28T10:58:49.338Z,2.33
2023-04-28T11:01:22.222Z,1.67
2023-04-28T11:04:00.215Z,2.07
2023-04-28T11:06:33.122Z,3.57
2023-04-28T11:09:19.543Z,5.23
2023-04-28T11:11:58.472Z,3.70
2023-04-28T11:14:25.187Z,7.40
2023-04-28T11:16:59.904Z,9.20
2023-04-28T11:19:30.713Z,6.00
2023-04-28T11:21:59.635Z,5.60
2023-04-28T11:24:28.983Z,5.50
2023-04-28T11:26:56.666Z,1.87
2023-04-28T11:29:41.029Z,2.07
2023-04-28T11:32:09.978Z,2.63
2023-04-28T11:34:37.869Z,1.40
2023-04-28T11:37:07.126Z,3.30
2023-04-28T11:39:34.846Z,4.90
2023-04-28T11:42:11.574Z,4.20
2023-04-28T11:44:38.478Z,8.10
2023-04-28T11:47:06.631Z,3.97
2023-04-28T11:49:44.426Z,2.27
2023-04-28T11:52:11.713Z,2.07
2023-04-28T11:54:38.909Z,1.83
2023-04-28T11:57:06.689Z,5.00
2023-04-28T11:59:35.755Z,2.47
2023-04-28T12:02:03.836Z,3.03
2023-04-28T12:04:38.321Z,2.50
2023-04-28T12:07:05.302Z,5.27
2023-04-28T12:09:35.665Z,2.43
2023-04-28T12:12:11.937Z,5.57
2023-04-28T12:14:58.220Z,3.60
2023-04-28T12:17:34.026Z,5.73
2023-04-28T12:20:07.941Z,2.83
2023-04-28T12:22:48.661Z,4.30
2023-04-28T12:25:17.973Z,5.63
2023-04-28T12:28:03.688Z,8.33
2023-04-28T12:30:35.287Z,10.10
2023-04-28T12:33:02.428Z,3.40
2023-04-28T12:35:29.959Z,4.30
2023-04-28T12:37:58.885Z,2.03
2023-04-28T12:40:26.324Z,2.23
2023-04-28T12:42:53.686Z,2.70
2023-04-28T12:45:20.502Z,6.93
2023-04-28T12:47:48.156Z,5.80
2023-04-28T12:50:15.121Z,5.83
2023-04-28T12:52:41.956Z,4.77
2023-04-28T12:55:09.304Z,3.50
2023-04-28T12:57:39.091Z,8.07
2023-04-28T13:00:07.687Z,4.20
2023-04-28T13:02:34.951Z,8.80
2023-04-28T13:05:02.165Z,8.10
2023-04-28T13:07:30.308Z,3.47
2023-04-28T13:09:57.366Z,4.93
2023-04-28T13:12:24.327Z,4.23
2023-04-28T13:14:51.271Z,9.93
2023-04-28T13:17:18.135Z,11.07
2023-04-28T13:19:45.274Z,4.57
2023-04-28T13:22:12.435Z,7.47
2023-04-28T13:24:39.432Z,2.73
2023-04-28T13:27:09.775Z,7.73
2023-04-28T13:29:37.417Z,5.80
2023-04-28T13:32:05.764Z,4.27
2023-04-28T13:34:33.255Z,4.17
2023-04-28T13:37:00.056Z,3.43
2023-04-28T13:39:26.822Z,5.17
2023-04-28T13:41:53.714Z,3.90
2023-04-28T13:44:21.184Z,8.60
2023-04-28T13:46:48.271Z,5.03
2023-04-28T13:49:15.178Z,4.50
2023-04-28T13:51:41.941Z,3.73
2023-04-28T13:54:10.563Z,5.70
2023-04-28T13:56:37.766Z,3.27
2023-04-28T13:59:04.802Z,3.70
2023-04-28T14:01:31.615Z,12.10
2023-04-28T14:03:58.910Z,4.53
2023-04-28T14:06:27.448Z,6.00
2023-04-28T14:08:54.312Z,3.50
2023-04-28T14:11:21.127Z,3.80
2023-04-28T14:13:47.882Z,7.27
2023-04-28T14:16:14.866Z,5.20
2023-04-28T14:18:41.727Z,3.17
2023-04-28T14:21:09.078Z,6.70
2023-04-28T14:23:35.865Z,9.30
2023-04-28T14:26:02.822Z,9.33
2023-04-28T14:28:29.747Z,3.07
2023-04-28T14:30:56.879Z,7.07
2023-04-28T14:33:24.335Z,5.50
2023-04-28T14:35:51.201Z,5.40
2023-04-28T14:38:18.120Z,7.10
2023-04-28T14:40:44.905Z,4.23
2023-04-28T14:43:11.695Z,4.73
2023-04-28T14:45:38.556Z,6.13
2023-04-28T14:48:07.179Z,7.83
2023-04-28T14:50:34.460Z,4.27
2023-04-28T14:53:05.675Z,6.87
2023-04-28T14:55:33.468Z,4.40
2023-04-28T14:58:00.432Z,5.53
2023-04-28T15:00:27.196Z,3.70
2023-04-28T15:02:54.308Z,5.27
2023-04-28T15:05:21.579Z,4.00
2023-04-28T15:07:48.403Z,9.53
2023-04-28T15:10:15.426Z,3.57
2023-04-28T15:12:42.958Z,9.70
2023-04-28T15:15:10.257Z,3.17
2023-04-28T15:17:37.185Z,5.50
2023-04-28T15:20:05.297Z,4.27
2023-04-28T15:22:32.152Z,5.40
2023-04-28T15:24:58.950Z,3.70
2023-04-28T15:27:25.874Z,4.90
2023-04-28T15:29:52.698Z,4.53
2023-04-28T15:32:19.501Z,5.63
2023-04-28T15:34:46.313Z,7.83
2023-04-28T15:37:38.513Z,5.30
2023-04-28T15:40:08.461Z,2.90
2023-04-28T15:42:35.256Z,4.23
2023-04-28T15:45:03.121Z,3.77
2023-04-28T15:47:31.112Z,5.97
2023-04-28T15:49:59.870Z,5.43
2023-04-28T15:52:27.237Z,3.43
2023-04-28T15:54:55.908Z,5.03
2023-04-28T15:57:22.967Z,6.73
2023-04-28T15:59:51.697Z,2.83
2023-04-28T16:02:18.878Z,8.70
2023-04-28T16:04:47.047Z,5.27
2023-04-28T16:07:14.212Z,5.30
2023-04-28T16:09:41.141Z,5.23
2023-04-28T16:12:08.516Z,6.90
2023-04-28T16:14:36.488Z,4.27
2023-04-28T16:17:03.577Z,6.20
2023-04-28T16:19:30.493Z,6.37
2023-04-28T16:21:57.448Z,5.73
2023-04-28T16:24:24.796Z,3.80
2023-04-28T16:26:52.262Z,5.10
2023-04-28T16:29:19.028Z,6.63
2023-04-28T16:31:46.112Z,7.07
2023-04-28T16:34:13.012Z,3.33
2023-04-28T16:36:40.280Z,5.33
2023-04-28T16:39:07.193Z,8.70
2023-04-28T16:41:34.194Z,6.63
2023-04-28T16:44:00.938Z,3.47
2023-04-28T16:46:27.789Z,10.30
2023-04-28T16:48:54.633Z,13.43
2023-04-28T16:51:22.171Z,3.67
2023-04-28T16:53:49.057Z,6.57
2023-04-28T16:56:15.980Z,3.90
2023-04-28T16:58:42.933Z,16.23
2023-04-28T17:01:09.798Z,4.93
2023-04-28T17:03:41.617Z,5.23
2023-04-28T17:06:09.075Z,3.97
2023-04-28T17:08:36.022Z,4.20
2023-04-28T17:11:04.751Z,5.30
2023-04-28T17:13:32.998Z,4.30
2023-04-28T17:16:00.359Z,10.50
2023-04-28T17:18:27.972Z,4.83
2023-04-28T17:20:55.170Z,4.73
2023-04-28T17:23:22.018Z,5.57
2023-04-28T17:25:48.891Z,5.80
2023-04-28T17:28:15.699Z,7.53
2023-04-28T17:30:46.905Z,6.00
2023-04-28T17:33:14.322Z,12.53
2023-04-28T17:35:41.044Z,6.80
2023-04-28T17:38:07.782Z,7.87
2023-04-28T17:40:34.532Z,7.73
2023-04-28T17:43:02.184Z,10.20
2023-04-28T17:45:29.093Z,9.03
2023-04-28T17:48:00.710Z,9.47
2023-04-28T17:50:28.409Z,11.07
2023-04-28T17:52:55.311Z,6.20
2023-04-28T17:55:23.456Z,6.73
2023-04-28T17:57:51.995Z,12.83
2023-04-28T18:00:18.865Z,10.40
2023-04-28T18:02:46.142Z,6.33
2023-04-28T18:05:13.226Z,7.07
2023-04-28T18:07:40.041Z,6.50
2023-04-28T18:10:07.331Z,17.23
2023-04-28T18:12:34.180Z,8.30
2023-04-28T18:15:01.413Z,6.70
2023-04-28T18:17:28.367Z,8.60
2023-04-28T18:19:57.089Z,7.67
2023-04-28T18:22:24.082Z,9.43
2023-04-28T18:24:51.236Z,7.00
2023-04-28T18:27:18.563Z,5.37
2023-04-28T18:29:45.702Z,9.60
2023-04-28T18:32:14.547Z,6.00
2023-04-28T18:34:41.640Z,10.97
2023-04-28T18:37:09.440Z,9.20
2023-04-28T18:39:37.041Z,12.90
2023-04-28T18:42:04.430Z,9.60
2023-04-28T18:44:31.321Z,16.40
2023-04-28T18:46:58.599Z,7.60
2023-04-28T18:49:25.809Z,8.20
2023-04-28T18:51:52.629Z,15.70
2023-04-28T18:54:19.868Z,10.67
2023-04-28T18:56:48.047Z,11.17
2023-04-28T18:59:14.876Z,12.70
2023-04-28T19:01:42.385Z,6.03
2023-04-28T19:04:09.519Z,10.10
2023-04-28T19:06:36.475Z,11.70
2023-04-28T19:09:03.526Z,10.20
2023-04-28T19:11:30.588Z,15.53
2023-04-28T19:13:58.094Z,13.20
2023-04-28T19:16:25.029Z,11.23
2023-04-28T19:18:52.140Z,13.30
2023-04-28T19:21:18.992Z,13.67
2023-04-28T19:23:46.218Z,14.87
2023-04-28T19:26:13.504Z,17.03
2023-04-28T19:28:40.391Z,11.90
2023-04-28T19:31:08.796Z,12.23
2023-04-28T19:33:35.760Z,16.83
2023-04-28T19:36:03.322Z,9.07
2023-04-28T19:38:30.185Z,19.17
2023-04-28T19:41:03.433Z,15.70
2023-04-28T19:43:30.769Z,11.87
2023-04-28T19:45:58.029Z,10.90
2023-04-28T19:48:26.199Z,10.00
2023-04-28T19:50:53.008Z,13.50
2023-04-28T19:53:19.832Z,8.83
2023-04-28T19:55:46.638Z,9.67
2023-04-28T19:58:14.933Z,12.33
2023-04-28T20:00:41.869Z,13.83
2023-04-28T20:03:09.239Z,11.83
2023-04-28T20:05:39.142Z,10.20
2023-04-28T20:08:06.046Z,16.20
2023-04-28T20:10:33.059Z,12.70
2023-04-28T20:12:59.952Z,12.90
2023-04-28T20:15:26.859Z,16.77
2023-04-28T20:17:53.797Z,12.47
2023-04-28T20:20:20.820Z,13.13
2023-04-28T20:22:50.609Z,19.50
2023-04-28T20:25:17.648Z,21.17
2023-04-28T20:27:46.914Z,16.90
2023-04-28T20:30:14.201Z,12.93
2023-04-28T20:32:41.144Z,15.20
2023-04-28T20:35:08.353Z,14.87
2023-04-28T20:37:35.118Z,16.40
2023-04-28T20:40:01.889Z,16.43
2023-04-28T20:42:29.353Z,13.97
2023-04-28T20:44:56.116Z,20.27
2023-04-28T20:47:22.943Z,18.60
2023-04-28T20:49:50.099Z,17.93
2023-04-28T20:52:18.438Z,19.27
2023-04-28T20:54:45.795Z,15.10
2023-04-28T20:57:12.631Z,20.07
2023-04-28T20:59:39.494Z,20.63
2023-04-28T21:02:06.703Z,11.73
2023-04-28T21:04:33.546Z,15.80
2023-04-28T21:07:00.303Z,19.63
2023-04-28T21:09:27.171Z,12.27
2023-04-28T21:11:54.973Z,27.33
2023-04-28T21:14:22.213Z,17.30
2023-04-28T21:16:49.672Z,15.90
2023-04-28T21:19:17.473Z,15.00
2023-04-28T21:21:44.306Z,16.90
2023-04-28T21:24:11.075Z,15.70
2023-04-28T21:26:37.854Z,23.03
2023-04-28T21:29:05.064Z,19.83
2023-04-28T21:31:31.920Z,20.53
2023-04-28T21:33:58.826Z,14.40
2023-04-28T21:36:25.673Z,19.70
2023-04-28T21:38:52.451Z,16.23
2023-04-28T21:41:20.481Z,14.30
2023-04-28T21:43:47.357Z,19.10
2023-04-28T21:46:14.284Z,17.27
2023-04-28T21:48:41.173Z,16.33
2023-04-28T21:51:07.950Z,16.10
2023-04-28T21:53:37.987Z,26.23
2023-04-28T21:56:05.690Z,13.80
2023-04-28T21:58:33.186Z,18.23
2023-04-28T22:01:01.401Z,19.93
2023-04-28T22:03:28.909Z,16.47
2023-04-28T22:05:56.536Z,18.97
2023-04-28T22:08:23.376Z,19.10
2023-04-28T22:10:50.207Z,20.58
2023-04-28T22:13:17.026Z,15.40
2023-04-28T22:15:43.857Z,18.43
2023-04-28T22:18:10.684Z,16.17
2023-04-28T22:20:37.680Z,23.45
2023-04-28T22:23:04.668Z,23.80
2023-04-28T22:25:31.868Z,13.53
2023-04-28T22:27:58.706Z,16.10
2023-04-28T22:30:26.314Z,15.55
2023-04-28T22:32:53.600Z,18.33
2023-04-28T22:35:22.161Z,16.83
2023-04-28T22:49:17.842Z,19.05
2023-04-28T22:51:44.622Z,16.52
2023-04-28T22:54:11.487Z,13.00
2023-04-28T22:56:38.270Z,18.83
2023-04-28T22:59:05.699Z,26.63
2023-04-28T23:01:32.475Z,14.73
2023-04-28T23:03:59.469Z,17.67
2023-04-28T23:06:28.580Z,15.38
2023-04-28T23:08:56.002Z,16.63
2023-04-28T23:11:24.297Z,21.17
2023-04-28T23:13:51.785Z,20.42
2023-04-28T23:16:18.692Z,14.15
2023-04-28T23:18:45.662Z,17.23
2023-04-28T23:21:12.559Z,17.13
2023-04-28T23:23:39.332Z,15.38
2023-04-28T23:26:06.163Z,12.50
2023-04-28T23:28:32.959Z,16.43
2023-04-28T23:30:59.694Z,18.40
2023-04-28T23:33:26.465Z,18.33
2023-04-28T23:35:53.750Z,22.13
2023-04-28T23:38:21.059Z,17.50
2023-04-28T23:40:47.957Z,19.88
2023-04-28T23:43:15.121Z,14.27
2023-04-28T23:45:42.668Z,17.85
2023-04-28T23:48:09.494Z,14.30
2023-04-28T23:50:36.274Z,16.00
2023-04-28T23:53:03.020Z,14.00
2023-04-28T23:55:29.953Z,13.32
2023-04-28T23:57:56.758Z,15.43
